Time;durP1;ratioP1;P1;durP2;ratioP2;P2;SDS_P1;SDS_P2;PMS_P1;PMS_P2;Temp;Humidity;BMP_temperature;BMP_pressure;BME280_temperature;BME280_humidity;BME280_pressure;Samples;Min_cycle;Max_cycle;Signal;HPM_P1;HPM_P2
2021/11/21 00:02:04;;;;;;;;;;;;;;;3.96;77.43;98874.39;1763421;81;21018;-66
2021/11/21 00:04:32;;;;;;;12.55;4.05;;;;;;;3.93;77.49;98878.38;1758725;81;20117;-67
2021/11/21 00:07:00;;;;;;;12.73;3.92;;;;;;;3.82;77.90;98871.78;1756301;81;21125;-67
2021/11/21 00:09:26;;;;;;;11.63;4.33;;;;;;;3.84;78.01;98873.16;1752946;81;21018;-67
2021/11/21 00:11:53;;;;;;;13.60;3.83;;;;;;;3.90;78.01;98868.64;1760738;80;21080;-66
2021/11/21 00:14:20;;;;;;;10.50;4.33;;;;;;;3.94;78.02;98874.63;1724923;82;21003;-67
2021/11/21 00:16:47;;;;;;;11.53;3.92;;;;;;;3.95;78.13;98872.23;1750730;81;21065;-66
2021/11/21 00:19:13;;;;;;;16.45;5.10;;;;;;;3.92;78.39;98878.11;1761274;81;20993;-67
2021/11/21 00:21:41;;;;;;;10.93;4.42;;;;;;;3.95;78.56;98876.27;1760961;80;21081;-66
2021/11/21 00:24:07;;;;;;;13.43;5.28;;;;;;;4.05;78.59;98884.17;1709656;82;21011;-67
2021/11/21 00:26:34;;;;;;;14.38;4.58;;;;;;;4.13;78.61;98882.41;1753934;80;21540;-66
2021/11/21 00:29:00;;;;;;;;;;;;;;;4.15;78.68;98877.04;1764049;81;20974;-66
2021/11/21 00:31:27;;;;;;;14.53;4.87;;;;;;;4.20;78.77;98881.16;1761009;80;20103;-66
2021/11/21 00:33:53;;;;;;;16.12;4.53;;;;;;;4.25;78.76;98870.42;1750925;81;20987;-66
2021/11/21 00:36:20;;;;;;;;;;;;;;;4.32;78.73;98879.69;1747946;80;21018;-66
2021/11/21 00:38:46;;;;;;;15.90;4.85;;;;;;;4.36;78.73;98870.83;1761255;81;20114;-66
2021/11/21 00:41:13;;;;;;;16.87;5.00;;;;;;;4.29;79.03;98860.77;1754850;80;21102;-66
2021/11/21 00:43:40;;;;;;;11.33;4.33;;;;;;;4.36;79.08;98865.96;1747570;82;21022;-66
2021/11/21 00:46:07;;;;;;;14.87;4.87;;;;;;;4.44;79.00;98861.48;1747365;81;21604;-66
2021/11/21 00:48:37;;;;;;;13.80;4.78;;;;;;;4.53;78.92;98864.55;1747845;82;20991;-66
2021/11/21 00:51:04;;;;;;;12.23;4.28;;;;;;;4.59;78.92;98853.56;1740592;81;21088;-66
2021/11/21 00:53:31;;;;;;;13.60;4.62;;;;;;;4.64;79.06;98852.81;1740579;82;21032;-66
2021/11/21 00:56:04;;;;;;;12.88;4.85;;;;;;;4.70;79.11;98848.55;1740496;81;21668;-66
2021/11/21 00:58:32;;;;;;;12.18;4.50;;;;;;;4.80;79.04;98854.57;1745150;82;21002;-66
2021/11/21 01:00:58;;;;;;;10.78;5.03;;;;;;;4.88;79.04;98850.06;1747625;81;21081;-66
2021/11/21 01:03:25;;;;;;;12.85;4.72;;;;;;;4.95;79.07;98846.62;1748596;82;21039;-67
2021/11/21 01:05:54;;;;;;;12.20;4.95;;;;;;;4.99;79.12;98836.95;1738138;81;21137;-66
2021/11/21 01:08:21;;;;;;;13.58;5.28;;;;;;;5.01;79.31;98827.52;1737638;82;21322;-66
2021/11/21 01:10:51;;;;;;;11.70;5.00;;;;;;;5.07;79.41;98825.67;1740192;82;21142;-66
2021/11/21 01:13:17;;;;;;;13.10;4.83;;;;;;;5.17;79.39;98823.08;1725631;82;21020;-68
2021/11/21 01:15:44;;;;;;;16.32;5.65;;;;;;;5.27;79.44;98818.28;1753098;80;21061;-68
2021/11/21 01:18:12;;;;;;;10.25;5.03;;;;;;;5.36;79.56;98809.95;1743405;82;20992;-68
2021/11/21 01:20:40;;;;;;;12.93;5.50;;;;;;;5.44;79.60;98813.53;1734889;81;21062;-68
2021/11/21 01:23:12;;;;;;;11.68;5.25;;;;;;;5.50;79.63;98812.47;1740893;82;21074;-68
2021/11/21 01:25:40;;;;;;;10.88;5.12;;;;;;;5.53;79.80;98806.55;1743859;81;21642;-68
2021/11/21 01:28:07;;;;;;;10.35;5.03;;;;;;;5.57;79.95;98804.14;1749263;82;21027;-68
2021/11/21 01:30:34;;;;;;;11.12;5.03;;;;;;;5.63;79.91;98808.52;1745586;81;21147;-68
2021/11/21 01:33:01;;;;;;;9.63;5.60;;;;;;;5.67;79.86;98804.22;1744291;82;21015;-69
2021/11/21 01:35:27;;;;;;;;;;;;;;;5.72;79.89;98802.88;1711452;83;21090;-68
2021/11/21 01:37:54;;;;;;;13.22;5.50;;;;;;;5.73;79.93;98800.46;1708228;84;20453;-68
2021/11/21 01:40:20;;;;;;;10.75;5.37;;;;;;;5.70;80.17;98788.30;1747478;81;21552;-68
2021/11/21 01:42:47;;;;;;;10.38;5.47;;;;;;;5.67;80.40;98796.13;1744892;82;21463;-69
2021/11/21 01:45:14;;;;;;;11.38;5.30;;;;;;;5.68;80.61;98790.97;1690395;82;21074;-68
2021/11/21 01:47:43;;;;;;;13.53;5.67;;;;;;;5.71;80.63;98795.31;1748096;82;21070;-68
2021/11/21 01:50:14;;;;;;;11.48;5.42;;;;;;;5.75;80.57;98794.25;1745225;81;21082;-68
2021/11/21 01:52:43;;;;;;;11.20;5.65;;;;;;;5.76;80.62;98788.59;1747296;82;21039;-68
2021/11/21 01:55:09;;;;;;;10.10;5.00;;;;;;;5.78;80.63;98791.83;1747614;81;21519;-68
2021/11/21 01:57:37;;;;;;;12.90;5.42;;;;;;;5.80;80.66;98794.28;1747370;82;21560;-68
2021/11/21 02:00:07;;;;;;;10.45;5.17;;;;;;;5.86;80.67;98787.84;1747274;81;21644;-68
2021/11/21 02:02:41;;;;;;;12.93;5.33;;;;;;;5.91;80.70;98779.24;1746850;82;21533;-68
2021/11/21 02:05:08;;;;;;;9.08;4.95;;;;;;;5.96;80.69;98774.37;1747538;81;21058;-68
2021/11/21 02:07:35;;;;;;;11.78;5.42;;;;;;;5.95;80.83;98773.56;1750897;81;21503;-69
2021/11/21 02:10:01;;;;;;;;;;;;;;;5.97;80.91;98768.72;1721621;82;21087;-68
2021/11/21 02:12:28;;;;;;;10.85;5.65;;;;;;;6.02;80.87;98764.41;1743690;82;20097;-68
2021/11/21 02:14:54;;;;;;;13.15;5.85;;;;;;;6.02;81.02;98769.28;1720367;82;21092;-69
2021/11/21 02:17:26;;;;;;;12.65;5.17;;;;;;;6.07;81.06;98778.73;1742023;82;21078;-68
2021/11/21 02:19:52;;;;;;;12.13;5.58;;;;;;;6.12;81.08;98777.42;1744047;81;20960;-68
2021/11/21 02:22:19;;;;;;;10.20;5.33;;;;;;;6.16;81.17;98769.05;1724992;82;21117;-68
2021/11/21 02:24:46;;;;;;;10.95;5.70;;;;;;;6.20;81.14;98771.47;1739855;81;21038;-68
2021/11/21 02:27:18;;;;;;;12.15;5.62;;;;;;;6.24;81.15;98769.86;1746613;82;21015;-68
2021/11/21 02:29:44;;;;;;;11.43;6.03;;;;;;;6.27;81.20;98772.03;1747460;81;21002;-68
2021/11/21 02:32:11;;;;;;;11.35;6.08;;;;;;;6.32;81.27;98774.75;1746017;82;21532;-68
2021/11/21 02:34:37;;;;;;;12.20;6.33;;;;;;;6.38;81.25;98760.70;1747743;81;20972;-68
2021/11/21 02:37:08;;;;;;;10.32;5.87;;;;;;;6.43;81.26;98754.77;1747540;82;21062;-68
2021/11/21 02:39:37;;;;;;;12.15;6.12;;;;;;;6.46;81.27;98758.83;1744669;81;21047;-68
2021/11/21 02:42:05;;;;;;;11.97;6.40;;;;;;;6.48;81.26;98758.82;1747568;81;21014;-68
2021/11/21 02:44:32;;;;;;;9.63;5.55;;;;;;;6.51;81.21;98754.79;1747731;82;20963;-69
2021/11/21 02:47:00;;;;;;;12.20;6.75;;;;;;;6.55;81.16;98753.17;1747380;82;21030;-69
2021/11/21 02:49:27;;;;;;;;;;;;;;;6.56;81.16;98752.61;1750051;82;20955;-69
2021/11/21 02:51:53;;;;;;;9.65;5.47;;;;;;;6.59;81.18;98746.13;1745662;81;20419;-68
2021/11/21 02:54:19;;;;;;;9.70;5.83;;;;;;;6.57;81.25;98739.37;1744074;82;21529;-69
2021/11/21 02:56:47;;;;;;;9.08;5.55;;;;;;;6.58;81.24;98743.17;1747336;81;21129;-68
2021/11/21 02:59:13;;;;;;;11.28;6.30;;;;;;;6.60;81.17;98734.23;1745396;82;21355;-69
2021/11/21 03:01:39;;;;;;;;;;;;;;;6.63;81.10;98735.03;1749219;81;21080;-68
2021/11/21 03:04:07;;;;;;;12.33;6.20;;;;;;;6.63;81.09;98733.69;1747432;82;20103;-69
2021/11/21 03:06:37;;;;;;;11.78;6.35;;;;;;;6.57;81.29;98734.77;1747358;81;21117;-68
2021/11/21 03:09:04;;;;;;;9.50;6.17;;;;;;;6.59;81.32;98727.76;1747318;82;21027;-68
2021/11/21 03:11:33;;;;;;;12.25;6.65;;;;;;;6.62;81.31;98721.80;1746782;81;21023;-68
2021/11/21 03:14:03;;;;;;;9.63;6.15;;;;;;;6.65;81.34;98717.20;1725041;82;21521;-68
2021/11/21 03:16:30;;;;;;;9.50;6.25;;;;;;;6.66;81.34;98726.38;1747585;81;21093;-68
2021/11/21 03:18:56;;;;;;;10.58;5.92;;;;;;;6.66;81.36;98721.54;1746882;82;21003;-68
2021/11/21 03:21:22;;;;;;;11.25;6.35;;;;;;;6.68;81.43;98729.64;1731418;81;21075;-68
2021/11/21 03:23:50;;;;;;;9.93;6.33;;;;;;;6.71;81.52;98726.93;1733788;82;21018;-68
2021/11/21 03:26:16;;;;;;;9.60;6.33;;;;;;;6.72;81.56;98723.16;1745152;81;21063;-68
2021/11/21 03:28:43;;;;;;;10.15;5.87;;;;;;;6.72;81.57;98728.56;1734563;82;21033;-68
2021/11/21 03:31:10;;;;;;;10.13;6.17;;;;;;;6.73;81.52;98739.09;1729777;82;21038;-69
2021/11/21 03:33:38;;;;;;;8.58;5.75;;;;;;;6.74;81.51;98740.72;1747576;82;21057;-68
2021/11/21 03:36:05;;;;;;;9.95;6.22;;;;;;;6.73;81.47;98741.02;1747456;81;21597;-68
2021/11/21 03:38:31;;;;;;;9.40;6.47;;;;;;;6.72;81.53;98745.60;1746822;82;21497;-69
2021/11/21 03:40:58;;;;;;;10.18;6.00;;;;;;;6.72;81.62;98749.66;1747422;81;21596;-68
2021/11/21 03:43:24;;;;;;;9.93;6.53;;;;;;;6.75;81.69;98741.00;1747503;82;21021;-68
2021/11/21 03:45:51;;;;;;;10.48;6.53;;;;;;;6.76;81.69;98735.87;1726623;82;21030;-68
2021/11/21 03:48:17;;;;;;;9.18;6.58;;;;;;;6.78;81.65;98740.99;1731894;82;21066;-68
2021/11/21 03:50:44;;;;;;;;;;;;;;;6.77;81.70;98739.36;1742150;81;21068;-69
2021/11/21 03:53:11;;;;;;;8.83;5.90;;;;;;;6.72;81.73;98733.97;1747041;82;20123;-68
2021/11/21 03:55:37;;;;;;;10.78;6.03;;;;;;;6.68;81.62;98729.64;1745641;81;21019;-68
2021/11/21 03:58:04;;;;;;;8.98;5.90;;;;;;;6.63;81.52;98728.28;1747527;82;20990;-68
2021/11/21 04:00:31;;;;;;;10.15;5.85;;;;;;;6.60;81.57;98728.83;1746609;81;21087;-69
2021/11/21 04:02:58;;;;;;;10.05;6.15;;;;;;;6.56;81.63;98726.92;1740866;82;21039;-68
2021/11/21 04:05:24;;;;;;;10.10;6.25;;;;;;;6.56;81.97;98727.73;1727541;81;21010;-68
2021/11/21 04:07:51;;;;;;;;;;;;;;;6.56;81.97;98727.73;1741030;82;21034;-68
2021/11/21 04:10:18;;;;;;;10.70;6.53;;;;;;;6.55;82.10;98716.67;1724669;81;20110;-68
2021/11/21 04:12:45;;;;;;;7.87;5.87;;;;;;;6.55;82.28;98726.14;1716909;82;21104;-69
2021/11/21 04:15:11;;;;;;;;;;;;;;;6.58;82.35;98728.83;1723817;82;21082;-69
2021/11/21 04:17:39;;;;;;;8.60;5.60;;;;;;;6.63;82.42;98724.22;1747383;82;20351;-68
2021/11/21 04:20:07;;;;;;;10.72;6.33;;;;;;;6.63;82.55;98722.05;1746762;81;21046;-69
2021/11/21 04:22:34;;;;;;;10.00;6.17;;;;;;;6.68;82.60;98721.53;1747343;82;21031;-68
2021/11/21 04:25:01;;;;;;;9.78;6.22;;;;;;;6.74;82.67;98715.56;1751120;80;21106;-68
2021/11/21 04:27:27;;;;;;;8.08;6.20;;;;;;;6.80;82.68;98717.20;1744470;82;21020;-68
2021/11/21 04:29:55;;;;;;;8.23;6.60;;;;;;;6.86;82.67;98713.41;1738854;81;21070;-68
2021/11/21 04:32:22;;;;;;;12.82;6.12;;;;;;;6.92;82.65;98715.02;1747706;82;21030;-68
2021/11/21 04:34:49;;;;;;;9.80;6.15;;;;;;;6.97;82.65;98708.25;1747439;81;20981;-68
2021/11/21 04:37:15;;;;;;;8.88;6.20;;;;;;;7.03;82.66;98702.28;1745060;82;21050;-68
2021/11/21 04:39:42;;;;;;;8.90;5.95;;;;;;;7.07;82.68;98702.00;1747867;81;20998;-68
2021/11/21 04:42:09;;;;;;;7.20;5.60;;;;;;;7.13;82.59;98707.13;1747720;82;21037;-69
2021/11/21 04:44:35;;;;;;;9.50;6.20;;;;;;;7.13;82.46;98705.77;1726183;81;21054;-68
2021/11/21 04:47:02;;;;;;;8.10;5.60;;;;;;;7.23;82.35;98719.81;1746992;82;21023;-68
2021/11/21 04:49:30;;;;;;;8.45;6.20;;;;;;;7.24;82.26;98716.85;1703897;83;21489;-69
2021/11/21 04:51:57;;;;;;;;;;;;;;;7.27;82.21;98716.83;1694091;83;21640;-68
2021/11/21 04:54:26;;;;;;;8.93;6.72;;;;;;;7.30;82.18;98725.75;1687549;85;20149;-69
2021/11/21 04:56:52;;;;;;;8.90;6.55;;;;;;;7.26;82.33;98717.38;1745545;81;21083;-68
2021/11/21 04:59:20;;;;;;;9.13;6.62;;;;;;;7.24;82.51;98714.68;1741314;82;21338;-69
2021/11/21 05:01:47;;;;;;;8.35;6.35;;;;;;;7.28;82.47;98707.64;1747607;81;21066;-68
2021/11/21 05:04:13;;;;;;;8.65;6.87;;;;;;;7.33;82.40;98709.77;1720750;82;21049;-69
2021/11/21 05:06:40;;;;;;;;;;;;;;;7.36;82.24;98709.25;1732478;82;21161;-70
2021/11/21 05:09:07;;;;;;;8.68;7.05;;;;;;;7.38;82.15;98711.66;1745001;82;20161;-69
2021/11/21 05:11:35;;;;;;;8.13;6.45;;;;;;;7.34;82.10;98714.11;1747345;81;21623;-69
2021/11/21 05:14:04;;;;;;;9.45;6.87;;;;;;;7.34;82.00;98714.65;1747436;82;21011;-68
2021/11/21 05:16:37;;;;;;;10.15;7.45;;;;;;;7.36;82.08;98713.31;1747399;81;21077;-68
2021/11/21 05:19:02;;;;;;;9.23;7.58;;;;;;;7.40;82.08;98706.23;1747443;82;21043;-68
2021/11/21 05:21:28;;;;;;;9.95;7.30;;;;;;;7.44;82.10;98705.13;1745593;81;21094;-69
2021/11/21 05:23:55;;;;;;;;;;;;;;;7.49;81.99;98713.25;1750137;82;21078;-69
2021/11/21 05:26:23;;;;;;;10.80;7.03;;;;;;;7.53;81.96;98710.27;1747980;81;20105;-68
2021/11/21 05:28:50;;;;;;;8.70;6.92;;;;;;;7.56;81.98;98696.70;1740042;82;21064;-69
2021/11/21 05:31:17;;;;;;;8.85;6.53;;;;;;;7.62;81.84;98699.11;1737184;82;21501;-69
2021/11/21 05:33:44;;;;;;;8.23;6.55;;;;;;;7.68;81.64;98696.67;1744519;82;21047;-68
2021/11/21 05:36:14;;;;;;;9.28;6.58;;;;;;;7.69;81.63;98696.91;1738281;81;21074;-69
2021/11/21 05:38:40;;;;;;;11.03;6.95;;;;;;;7.69;81.62;98688.78;1751330;81;21612;-69
2021/11/21 05:41:07;;;;;;;;;;;;;;;7.75;81.45;98689.59;1749693;81;21023;-68
2021/11/21 05:43:33;;;;;;;8.83;6.85;;;;;;;7.83;81.40;98695.79;1746937;81;20109;-69
2021/11/21 05:46:00;;;;;;;9.55;7.50;;;;;;;7.85;81.45;98694.95;1736126;82;21066;-69
2021/11/21 05:48:27;;;;;;;8.68;7.22;;;;;;;7.92;81.29;98699.52;1747460;82;21006;-69
2021/11/21 05:50:53;;;;;;;9.33;7.10;;;;;;;7.97;81.07;98692.16;1723065;82;21087;-70
2021/11/21 05:53:20;;;;;;;8.45;6.75;;;;;;;8.03;80.88;98701.09;1746266;82;21017;-68
2021/11/21 05:55:47;;;;;;;9.48;7.15;;;;;;;8.07;80.71;98696.73;1747455;81;21051;-69
2021/11/21 05:58:15;;;;;;;10.05;7.45;;;;;;;8.11;80.59;98697.80;1745820;82;21054;-69
2021/11/21 06:00:41;;;;;;;9.78;7.30;;;;;;;8.14;80.41;98685.58;1746314;81;21564;-69
2021/11/21 06:03:08;;;;;;;8.35;6.60;;;;;;;8.15;80.33;98687.98;1747744;82;21552;-69
2021/11/21 06:05:35;;;;;;;10.18;7.65;;;;;;;8.17;80.24;98693.95;1735090;81;21092;-69
2021/11/21 06:08:06;;;;;;;;;;;;;;;8.20;80.14;98698.00;1717091;82;21509;-69
2021/11/21 06:10:30;;;;;;;10.72;7.35;;;;;;;8.22;80.01;98696.61;1751117;80;20119;-68
2021/11/21 06:12:57;;;;;;;;;;;;;;;8.21;80.01;98695.55;1737657;82;21049;-69
2021/11/21 06:15:24;;;;;;;10.03;8.20;;;;;;;8.20;79.97;98691.22;1747781;81;20134;-69
2021/11/21 06:17:51;;;;;;;10.23;8.18;;;;;;;8.18;80.05;98699.65;1746679;82;21041;-69
2021/11/21 06:20:17;;;;;;;;;;;;;;;8.22;79.97;98693.13;1741516;82;21118;-69
2021/11/21 06:22:44;;;;;;;10.58;7.90;;;;;;;8.25;79.89;98696.63;1745454;82;20114;-69
2021/11/21 06:25:11;;;;;;;11.65;8.45;;;;;;;8.25;79.91;98696.08;1747587;81;21098;-69
2021/11/21 06:27:39;;;;;;;9.98;8.08;;;;;;;8.29;79.83;98699.84;1747535;82;21573;-68
2021/11/21 06:30:06;;;;;;;10.95;8.78;;;;;;;8.33;79.69;98700.91;1745637;81;21062;-68
2021/11/21 06:32:34;;;;;;;11.12;9.13;;;;;;;8.31;79.72;98699.58;1747024;82;21039;-68
2021/11/21 06:35:00;;;;;;;12.37;8.88;;;;;;;8.31;79.80;98686.02;1718058;82;21113;-69
2021/11/21 06:37:27;;;;;;;;;;;;;;;8.35;79.63;98694.67;1731531;82;22247;-69
2021/11/21 06:39:53;;;;;;;12.33;9.35;;;;;;;8.38;79.59;98691.39;1747434;81;20205;-70
2021/11/21 06:42:20;;;;;;;12.07;9.80;;;;;;;8.35;79.63;98694.67;1744268;82;21050;-69
2021/11/21 06:44:46;;;;;;;;;;;;;;;8.39;79.57;98688.14;1742266;82;20990;-68
2021/11/21 06:47:15;;;;;;;13.05;9.75;;;;;;;8.40;79.47;98695.16;1746722;82;20103;-69
2021/11/21 06:49:44;;;;;;;15.25;10.03;;;;;;;8.36;79.53;98692.78;1747333;81;21066;-69
2021/11/21 06:52:10;;;;;;;11.05;9.38;;;;;;;8.38;79.54;98701.43;1748315;82;21015;-69
2021/11/21 06:54:36;;;;;;;12.43;9.90;;;;;;;8.38;79.48;98694.65;1737956;82;21025;-68
2021/11/21 06:57:04;;;;;;;11.35;9.60;;;;;;;8.39;79.49;98696.28;1734605;82;21055;-68
2021/11/21 06:59:30;;;;;;;11.08;9.40;;;;;;;8.43;79.42;98695.98;1721472;82;21052;-69
2021/11/21 07:01:57;;;;;;;12.78;10.20;;;;;;;8.45;79.40;98697.84;1745180;82;21096;-69
2021/11/21 07:04:24;;;;;;;12.43;10.43;;;;;;;8.51;79.40;98698.06;1746652;82;21015;-69
2021/11/21 07:06:50;;;;;;;12.33;10.43;;;;;;;8.57;79.37;98702.38;1747509;81;21113;-69
2021/11/21 07:09:17;;;;;;;12.68;10.35;;;;;;;8.64;79.24;98700.70;1739235;81;21117;-70
2021/11/21 07:11:45;;;;;;;;;;;;;;;8.68;79.05;98695.75;1748153;81;21093;-69
2021/11/21 07:14:11;;;;;;;15.18;10.38;;;;;;;8.73;78.93;98694.36;1736150;82;20105;-69
2021/11/21 07:16:39;;;;;;;12.98;10.53;;;;;;;8.72;78.93;98694.64;1727968;82;21069;-69
2021/11/21 07:19:06;;;;;;;13.50;10.70;;;;;;;8.74;78.80;98697.34;1738169;82;21054;-68
2021/11/21 07:21:32;;;;;;;;;;;;;;;8.76;78.67;98687.00;1747071;81;21513;-69
2021/11/21 07:23:59;;;;;;;13.20;10.93;;;;;;;8.79;78.63;98686.98;1732503;81;20485;-69
2021/11/21 07:26:26;;;;;;;14.15;11.18;;;;;;;8.78;78.63;98683.48;1734132;81;21035;-69
2021/11/21 07:28:52;;;;;;;14.47;11.48;;;;;;;8.83;78.61;98683.41;1740385;82;21528;-69
2021/11/21 07:31:20;;;;;;;12.88;10.65;;;;;;;8.89;78.53;98689.63;1743060;81;21054;-68
2021/11/21 07:33:46;;;;;;;13.45;11.20;;;;;;;8.95;78.40;98689.28;1752320;82;21043;-69
2021/11/21 07:36:13;;;;;;;12.18;10.55;;;;;;;9.00;78.26;98683.78;1748273;81;20995;-69
2021/11/21 07:38:40;;;;;;;14.00;11.38;;;;;;;9.00;78.12;98691.92;1746384;82;21113;-69
2021/11/21 07:41:07;;;;;;;14.90;11.55;;;;;;;9.01;78.07;98687.31;1738316;81;21067;-69
2021/11/21 07:43:35;;;;;;;14.07;11.35;;;;;;;9.06;77.85;98687.27;1739505;82;21094;-68
2021/11/21 07:46:01;;;;;;;;;;;;;;;9.11;77.70;98691.82;1725004;82;21592;-69
2021/11/21 07:48:28;;;;;;;13.25;10.45;;;;;;;9.13;77.59;98685.03;1712017;84;20137;-70
2021/11/21 07:50:56;;;;;;;12.20;9.95;;;;;;;9.13;77.65;98682.86;1742278;81;21125;-69
2021/11/21 07:53:22;;;;;;;12.58;10.35;;;;;;;9.16;77.46;98695.31;1751982;82;21072;-69
2021/11/21 07:55:49;;;;;;;;;;;;;;;9.20;77.25;98688.76;1743735;81;21493;-69
2021/11/21 07:58:15;;;;;;;13.93;10.58;;;;;;;9.22;76.92;98695.52;1728816;83;20107;-70
2021/11/21 08:00:42;;;;;;;11.53;9.75;;;;;;;9.17;76.93;98690.16;1734209;81;21026;-69
2021/11/21 08:03:08;;;;;;;;;;;;;;;9.18;76.85;98690.39;1722778;82;21064;-68
2021/11/21 08:05:34;;;;;;;12.98;9.75;;;;;;;9.16;76.94;98693.95;1712886;82;20152;-69
2021/11/21 08:08:00;;;;;;;;;;;;;;;9.13;77.00;98695.08;1750108;82;21038;-69
2021/11/21 08:10:27;;;;;;;13.03;10.15;;;;;;;9.18;76.84;98700.44;1726858;82;20419;-68
2021/11/21 08:12:53;;;;;;;11.85;9.43;;;;;;;9.19;76.81;98708.85;1744921;82;21654;-69
2021/11/21 08:15:21;;;;;;;13.08;10.15;;;;;;;9.22;76.52;98700.13;1746750;81;21109;-70
2021/11/21 08:17:47;;;;;;;11.90;9.65;;;;;;;9.18;76.43;98703.16;1743509;82;21043;-70
2021/11/21 08:20:14;;;;;;;10.75;9.43;;;;;;;9.15;76.35;98699.11;1724512;82;21120;-70
2021/11/21 08:22:41;;;;;;;10.35;9.15;;;;;;;9.19;76.19;98700.70;1747804;82;21067;-70
2021/11/21 08:25:08;;;;;;;13.08;8.20;;;;;;;9.21;76.09;98688.45;1747148;81;21056;-70
2021/11/21 08:27:35;;;;;;;11.50;9.20;;;;;;;9.23;76.00;98694.42;1739221;82;20988;-72
2021/11/21 08:30:03;;;;;;;11.48;8.83;;;;;;;9.23;75.86;98695.78;1725448;82;21066;-71
2021/11/21 08:32:29;;;;;;;10.68;8.83;;;;;;;9.20;75.87;98703.69;1741093;82;20955;-71
2021/11/21 08:34:56;;;;;;;;;;;;;;;9.21;75.73;98699.89;1747603;80;21058;-69
2021/11/21 08:37:22;;;;;;;10.68;8.85;;;;;;;9.22;75.59;98703.66;1741603;82;20439;-71
2021/11/21 08:39:50;;;;;;;10.50;8.73;;;;;;;9.18;75.66;98692.29;1745642;80;21096;-71
2021/11/21 08:42:17;;;;;;;11.25;9.13;;;;;;;9.19;75.55;98706.95;1747706;82;21011;-70
2021/11/21 08:44:43;;;;;;;10.78;9.30;;;;;;;9.18;75.58;98697.17;1740778;81;21053;-70
2021/11/21 08:47:10;;;;;;;12.45;9.15;;;;;;;9.19;75.56;98692.02;1732954;81;21067;-69
2021/11/21 08:49:38;;;;;;;11.08;8.48;;;;;;;9.27;75.46;98692.75;1753404;80;21814;-69
2021/11/21 08:52:07;;;;;;;11.38;8.80;;;;;;;9.33;75.22;98692.95;1691382;83;21020;-70
2021/11/21 08:54:34;;;;;;;11.20;8.55;;;;;;;9.37;75.11;98694.54;1752643;81;21059;-69
2021/11/21 08:57:02;;;;;;;11.43;9.50;;;;;;;9.36;75.11;98690.20;1763537;81;22429;-70
2021/11/21 08:59:28;;;;;;;;;;;;;;;9.40;74.98;98692.59;1753070;80;21051;-69
2021/11/21 09:01:55;;;;;;;11.20;8.30;;;;;;;9.45;74.85;98692.01;1749560;82;20106;-70
2021/11/21 09:04:21;;;;;;;9.50;8.23;;;;;;;9.44;74.72;98682.23;1746811;80;21030;-70
2021/11/21 09:06:47;;;;;;;;;;;;;;;9.48;74.60;98684.63;1755510;81;20994;-70
2021/11/21 09:09:14;;;;;;;11.12;8.30;;;;;;;9.47;74.39;98678.94;1753784;80;20099;-70
2021/11/21 09:11:42;;;;;;;;;;;;;;;9.39;74.54;98684.99;1745149;82;21124;-70
2021/11/21 09:14:08;;;;;;;10.40;8.40;;;;;;;9.45;74.24;98677.61;1753318;82;20121;-69
2021/11/21 09:16:35;;;;;;;9.30;7.72;;;;;;;9.38;74.21;98671.17;1754045;81;21994;-70
2021/11/21 09:19:02;;;;;;;12.00;8.03;;;;;;;9.47;74.05;98668.06;1751637;80;21506;-71
2021/11/21 09:21:29;;;;;;;10.50;7.90;;;;;;;9.47;73.97;98666.70;1751690;80;21084;-72
2021/11/21 09:23:55;;;;;;;9.93;8.08;;;;;;;9.47;73.95;98673.50;1754755;82;21636;-72
2021/11/21 09:26:21;;;;;;;11.30;7.80;;;;;;;9.51;73.93;98664.22;1753146;80;21030;-71
2021/11/21 09:28:48;;;;;;;9.73;7.70;;;;;;;9.59;73.78;98662.23;1752659;81;21003;-71
2021/11/21 09:31:15;;;;;;;;;;;;;;;9.65;73.76;98664.31;1753563;81;21014;-70
2021/11/21 09:33:41;;;;;;;10.50;7.70;;;;;;;9.72;73.62;98664.77;1752859;81;20429;-70
2021/11/21 09:36:10;;;;;;;10.40;7.55;;;;;;;9.67;73.86;98661.55;1754112;80;21015;-71
2021/11/21 09:38:37;;;;;;;9.58;8.35;;;;;;;9.74;73.79;98668.02;1754233;81;21014;-71
2021/11/21 09:41:03;;;;;;;9.93;7.95;;;;;;;9.78;73.56;98656.25;1743055;81;21071;-70
2021/11/21 09:43:31;;;;;;;9.23;7.75;;;;;;;9.83;73.42;98663.53;1752367;81;21027;-71
2021/11/21 09:45:59;;;;;;;9.50;7.95;;;;;;;9.86;73.43;98664.30;1746102;80;21119;-71
2021/11/21 09:48:31;;;;;;;9.63;7.67;;;;;;;9.86;73.41;98665.12;1740421;81;21153;-72
2021/11/21 09:50:59;;;;;;;9.63;7.62;;;;;;;9.88;73.14;98654.74;1709214;82;21129;-69
2021/11/21 09:53:25;;;;;;;10.30;7.62;;;;;;;9.96;73.07;98656.81;1745165;82;21121;-70
2021/11/21 09:55:52;;;;;;;9.53;7.40;;;;;;;10.06;72.76;98653.71;1746588;81;21042;-69
2021/11/21 09:58:19;;;;;;;9.73;7.15;;;;;;;10.11;72.55;98647.63;1746641;82;21046;-69
2021/11/21 10:00:45;;;;;;;8.75;7.37;;;;;;;10.12;72.39;98641.09;1716506;82;21066;-69
2021/11/21 10:03:13;;;;;;;;;;;;;;;10.16;72.14;98633.19;1750885;81;21510;-70
2021/11/21 10:05:46;;;;;;;11.05;7.03;;;;;;;10.24;71.86;98627.87;1741644;81;20505;-69
2021/11/21 10:08:17;;;;;;;8.50;7.50;;;;;;;10.22;71.53;98634.72;1754275;81;21074;-69
2021/11/21 10:10:49;;;;;;;9.10;7.45;;;;;;;10.18;71.44;98641.84;1747134;80;21565;-69
2021/11/21 10:13:37;;;;;;;9.83;7.08;;;;;;;10.16;71.58;98639.44;1745461;81;21054;-69
2021/11/21 10:16:30;;;;;;;10.53;7.47;;;;;;;10.22;71.20;98643.69;1745344;82;21127;-69
2021/11/21 10:19:07;;;;;;;9.10;7.60;;;;;;;10.24;71.20;98632.50;1742450;81;21068;-69
2021/11/21 10:21:40;;;;;;;9.53;7.62;;;;;;;10.21;71.20;98627.11;1746292;81;21392;-69
2021/11/21 10:24:21;;;;;;;9.25;7.22;;;;;;;10.19;71.26;98623.08;1746466;80;21018;-69
2021/11/21 10:26:45;;;;;;;10.55;8.33;;;;;;;10.26;70.98;98623.51;1750722;81;21573;-69
2021/11/21 10:29:30;;;;;;;11.15;8.00;;;;;;;10.25;70.63;98621.33;1759686;81;21552;-69
2021/11/21 10:31:57;;;;;;;9.50;7.37;;;;;;;10.17;70.49;98624.72;1747413;80;21038;-69
2021/11/21 10:34:24;;;;;;;9.18;7.40;;;;;;;10.09;70.58;98609.06;1747212;81;21499;-69
2021/11/21 10:36:50;;;;;;;;;;;;;;;10.07;70.65;98621.31;1695706;80;21110;-70
2021/11/21 10:39:20;;;;;;;8.35;6.87;;;;;;;10.04;70.69;98620.00;1741192;80;20138;-69
2021/11/21 10:41:47;;;;;;;10.43;7.67;;;;;;;9.90;70.98;98617.77;1760380;81;21503;-69
2021/11/21 10:44:16;;;;;;;9.50;7.70;;;;;;;9.85;71.24;98611.84;1757857;80;20991;-69
2021/11/21 10:46:46;;;;;;;10.80;8.13;;;;;;;9.85;71.13;98609.13;1747754;80;21461;-68
2021/11/21 10:49:27;;;;;;;13.32;8.05;;;;;;;9.86;71.22;98600.42;1744795;82;20995;-69
2021/11/21 10:52:05;;;;;;;10.23;7.58;;;;;;;9.90;71.15;98609.61;1746751;81;21091;-68
2021/11/21 10:54:36;;;;;;;10.48;8.40;;;;;;;9.89;71.13;98599.83;1739312;82;21526;-68
2021/11/21 10:57:05;;;;;;;9.70;7.62;;;;;;;9.85;71.08;98606.41;1746530;80;20999;-68
2021/11/21 10:59:37;;;;;;;10.18;7.62;;;;;;;9.87;71.14;98594.70;1748005;82;21000;-69
2021/11/21 11:02:19;;;;;;;9.85;7.47;;;;;;;9.94;70.98;98598.41;1749232;81;21414;-69
2021/11/21 11:05:14;;;;;;;10.43;8.43;;;;;;;10.04;70.74;98600.16;1743340;81;21441;-69
2021/11/21 11:08:02;;;;;;;9.85;7.92;;;;;;;10.05;70.40;98593.08;1747665;81;21019;-70
2021/11/21 11:10:36;;;;;;;11.88;8.30;;;;;;;9.99;70.18;98592.33;1745351;82;21082;-72
2021/11/21 11:13:14;;;;;;;9.60;7.75;;;;;;;9.98;70.10;98594.81;1747170;82;21524;-70
2021/11/21 11:15:43;;;;;;;9.65;7.90;;;;;;;10.01;70.17;98596.13;1746291;81;21066;-70
2021/11/21 11:18:11;;;;;;;9.68;7.40;;;;;;;10.07;70.28;98599.56;1745937;81;20999;-70
2021/11/21 11:20:49;;;;;;;9.10;7.40;;;;;;;10.13;70.04;98589.66;1747102;81;21102;-69
2021/11/21 11:23:17;;;;;;;9.83;7.55;;;;;;;10.13;70.03;98588.88;1741018;82;21005;-70
2021/11/21 11:25:44;;;;;;;8.95;6.60;;;;;;;10.14;69.79;98591.32;1746295;81;21022;-70
2021/11/21 11:28:33;;;;;;;9.20;7.28;;;;;;;10.15;69.25;98590.77;1718827;82;21074;-69
2021/11/21 11:31:01;;;;;;;9.60;7.37;;;;;;;10.16;68.93;98587.77;1746438;81;21067;-69
2021/11/21 11:33:37;;;;;;;10.20;7.60;;;;;;;10.11;68.79;98587.81;1746901;80;21023;-69
2021/11/21 11:36:19;;;;;;;9.15;6.90;;;;;;;10.05;68.84;98583.56;1746455;81;21488;-69
2021/11/21 11:39:05;;;;;;;10.65;7.30;;;;;;;10.03;68.57;98580.31;1745256;80;21517;-69
2021/11/21 11:41:31;;;;;;;8.23;7.25;;;;;;;10.03;68.12;98579.50;1747100;81;21043;-68
2021/11/21 11:43:58;;;;;;;;;;;;;;;9.99;67.93;98581.45;1749875;82;21010;-68
2021/11/21 11:46:28;;;;;;;10.60;7.45;;;;;;;9.94;67.53;98579.38;1744130;82;20102;-68
2021/11/21 11:49:09;;;;;;;8.75;6.78;;;;;;;9.83;67.57;98576.55;1739283;82;21636;-68